Arlington Center, Vermont
Current Conditions -  °F | °C
As of 9:54 PM on Sunday 23 Nov 2014 (Local Time) from KDDH Reporting Station
Scattered Clouds Scattered Clouds  
Wind Chill: 52°   Ceiling: Unl
Heat Index: 52°   Visibility: 10mi
Dew Point: 33°   Wind: 9mph
Humidity: 49%   Direction: 110°ESE
Pressure: 30.03"   Gusts: NA
Location:  43.1041°N, 73.154°W
Report Text: KDDH 240254Z AUTO 11008KT 10SM SCT090 11/01 A3003 RMK AO2 SLP170 T01110006 56010
Loading
Personal Weather Stations






























Interactive Weather Map New forecast layout! Learn more

10-Day Weather Forecast

Advertisements
Track Severe Weather on mobile